Time;durP1;ratioP1;P1;durP2;ratioP2;P2;SDS_P1;SDS_P2;PMS_P1;PMS_P2;Temp;Humidity;BMP_temperature;BMP_pressure;BME280_temperature;BME280_humidity;BME280_pressure;Samples;Min_cycle;Max_cycle;Signal;HPM_P1;HPM_P2
2021/06/13 00:01:11;;;;;;;7.40;4.80;;;;;;;-139.38;100.00;63230.50;5038164;28;20211;-74
2021/06/13 00:04:37;;;;;;;5.80;4.60;;;;;;;-139.38;100.00;63230.50;5035509;28;20207;-74
2021/06/13 00:08:02;;;;;;;6.20;4.87;;;;;;;-139.38;100.00;63230.50;5041217;28;20311;-75
2021/06/13 00:11:27;;;;;;;6.23;4.40;;;;;;;-139.38;100.00;63230.50;5031900;28;20223;-75
2021/06/13 00:14:53;;;;;;;7.40;4.60;;;;;;;-139.38;100.00;63230.50;5031723;28;20199;-74
2021/06/13 00:18:20;;;;;;;7.10;4.97;;;;;;;-139.38;100.00;63230.50;5032156;28;20247;-74
2021/06/13 00:21:47;;;;;;;6.80;4.87;;;;;;;-139.38;100.00;63230.50;5034597;28;20231;-74
2021/06/13 00:25:12;;;;;;;7.63;4.70;;;;;;;-139.38;100.00;63230.50;5034144;28;20216;-75
2021/06/13 00:28:38;;;;;;;5.97;4.27;;;;;;;-139.38;100.00;63230.50;5032387;28;20209;-75
2021/06/13 00:32:04;;;;;;;7.43;4.30;;;;;;;-139.38;100.00;63230.50;5031525;28;20231;-74
2021/06/13 00:35:31;;;;;;;5.60;4.20;;;;;;;-139.38;100.00;63230.50;5032963;28;20258;-74
2021/06/13 00:38:56;;;;;;;5.43;4.27;;;;;;;-139.38;100.00;63230.50;5032770;28;20224;-74
2021/06/13 00:42:22;;;;;;;6.90;4.40;;;;;;;-139.38;100.00;63230.50;5030930;28;20235;-74
2021/06/13 00:45:47;;;;;;;7.23;4.30;;;;;;;-139.38;100.00;63230.50;5031205;28;20212;-74
2021/06/13 00:49:13;;;;;;;6.30;4.43;;;;;;;-139.38;100.00;63230.50;5032200;28;20576;-74
2021/06/13 00:52:39;;;;;;;5.97;4.27;;;;;;;-139.38;100.00;63230.50;5030269;28;20712;-74
2021/06/13 00:56:05;;;;;;;5.97;4.40;;;;;;;-139.38;100.00;63230.50;5032417;28;20266;-73
2021/06/13 00:59:31;;;;;;;6.10;4.37;;;;;;;-139.38;100.00;63230.50;5034319;28;20708;-74
2021/06/13 01:02:56;;;;;;;6.10;4.40;;;;;;;-139.38;100.00;63230.50;5039790;28;20236;-74
2021/06/13 01:06:25;;;;;;;7.30;4.33;;;;;;;-139.38;100.00;63230.50;5032654;28;20210;-73
2021/06/13 01:09:56;;;;;;;5.80;4.30;;;;;;;-139.38;100.00;63230.50;5026483;28;20207;-74
2021/06/13 01:13:26;;;;;;;8.83;4.90;;;;;;;-139.38;100.00;63230.50;5039262;28;20226;-73
2021/06/13 01:17:01;;;;;;;9.63;4.77;;;;;;;-139.38;100.00;63230.50;5030897;28;20261;-74
2021/06/13 01:20:40;;;;;;;6.20;4.13;;;;;;;-139.38;100.00;63230.50;5029918;28;20226;-75
2021/06/13 01:24:19;;;;;;;8.03;4.70;;;;;;;-139.38;100.00;63230.50;5029511;28;20637;-72
2021/06/13 01:28:23;;;;;;;8.13;4.70;;;;;;;-139.38;100.00;63230.50;5031130;28;20286;-70
2021/06/13 01:31:53;;;;;;;8.20;4.47;;;;;;;-139.38;100.00;63230.50;5028799;28;20234;-71
2021/06/13 01:35:23;;;;;;;6.07;5.17;;;;;;;-139.38;100.00;63230.50;5028812;28;20206;-70
2021/06/13 01:38:50;;;;;;;7.07;4.57;;;;;;;-139.38;100.00;63230.50;5025000;28;20211;-71
2021/06/13 01:42:19;;;;;;;7.43;4.97;;;;;;;-139.38;100.00;63230.50;5022691;28;20265;-70
2021/06/13 01:45:45;;;;;;;6.57;4.20;;;;;;;-139.38;100.00;63230.50;5023394;28;20625;-71
2021/06/13 01:49:13;;;;;;;7.90;5.07;;;;;;;-139.38;100.00;63230.50;5029673;28;20226;-71
2021/06/13 01:52:39;;;;;;;6.63;4.57;;;;;;;-139.38;100.00;63230.50;5028941;28;20227;-70
2021/06/13 01:56:05;;;;;;;7.67;4.50;;;;;;;-139.38;100.00;63230.50;5029341;28;20205;-71
2021/06/13 01:59:30;;;;;;;11.57;4.70;;;;;;;-139.38;100.00;63230.50;5016728;28;20230;-73
2021/06/13 02:02:58;;;;;;;5.67;4.20;;;;;;;-139.38;100.00;63230.50;5030307;28;20220;-72
2021/06/13 02:06:26;;;;;;;9.40;4.37;;;;;;;-139.38;100.00;63230.50;5027139;28;20211;-71
2021/06/13 02:09:53;;;;;;;7.87;4.83;;;;;;;-139.38;100.00;63230.50;5025946;28;20287;-72
2021/06/13 02:13:18;;;;;;;7.50;4.97;;;;;;;-139.38;100.00;63230.50;5029588;28;20712;-72
2021/06/13 02:16:44;;;;;;;8.03;4.87;;;;;;;-139.38;100.00;63230.50;5027684;28;20207;-73
2021/06/13 02:20:11;;;;;;;5.87;4.00;;;;;;;-139.38;100.00;63230.50;5031019;28;20218;-72
2021/06/13 02:23:38;;;;;;;5.73;4.47;;;;;;;-139.38;100.00;63230.50;5022688;28;20214;-72
2021/06/13 02:27:04;;;;;;;11.03;4.27;;;;;;;-139.38;100.00;63230.50;5033657;28;20215;-73
2021/06/13 02:30:31;;;;;;;9.37;4.43;;;;;;;-139.38;100.00;63230.50;5031211;28;20201;-72
2021/06/13 02:33:58;;;;;;;6.50;4.27;;;;;;;-139.38;100.00;63230.50;5029364;28;20232;-72
2021/06/13 02:37:24;;;;;;;6.97;3.90;;;;;;;-139.38;100.00;63230.50;5024756;28;20200;-73
2021/06/13 02:40:53;;;;;;;9.00;4.30;;;;;;;-139.38;100.00;63230.50;5033770;28;20230;-71
2021/06/13 02:44:18;;;;;;;7.73;4.27;;;;;;;-139.38;100.00;63230.50;5033165;28;20264;-72
2021/06/13 02:47:44;;;;;;;7.63;3.70;;;;;;;-139.38;100.00;63230.50;5033915;28;20329;-73
2021/06/13 02:51:10;;;;;;;6.70;3.70;;;;;;;-139.38;100.00;63230.50;5032991;28;20209;-73
2021/06/13 02:54:40;;;;;;;8.47;3.83;;;;;;;-139.38;100.00;63230.50;5023744;28;20235;-73
2021/06/13 02:58:12;;;;;;;6.40;4.10;;;;;;;-139.38;100.00;63230.50;5029319;28;20342;-73
2021/06/13 03:01:39;;;;;;;7.87;4.63;;;;;;;-139.38;100.00;63230.50;5030140;28;20233;-73
2021/06/13 03:05:06;;;;;;;7.67;4.37;;;;;;;-139.38;100.00;63230.50;5023444;28;20207;-73
2021/06/13 03:08:32;;;;;;;7.83;4.37;;;;;;;-139.38;100.00;63230.50;5020235;28;20274;-72
2021/06/13 03:11:57;;;;;;;9.13;4.90;;;;;;;-139.38;100.00;63230.50;5032844;28;20241;-72
2021/06/13 03:15:28;;;;;;;6.23;4.13;;;;;;;-139.38;100.00;63230.50;5029317;28;20210;-74
2021/06/13 03:18:54;;;;;;;8.77;4.23;;;;;;;-139.38;100.00;63230.50;5023208;28;20195;-73
2021/06/13 03:22:19;;;;;;;8.07;3.87;;;;;;;-139.38;100.00;63230.50;5027353;28;20722;-72
2021/06/13 03:25:47;;;;;;;6.67;3.57;;;;;;;-139.38;100.00;63230.50;5028584;28;20205;-74
2021/06/13 03:29:14;;;;;;;7.00;4.10;;;;;;;-139.38;100.00;63230.50;5029464;28;20212;-73
2021/06/13 03:32:40;;;;;;;5.80;3.37;;;;;;;-139.38;100.00;63230.50;5032481;28;20234;-73
2021/06/13 03:36:07;;;;;;;6.60;3.90;;;;;;;-139.38;100.00;63230.50;5024838;28;20238;-73
2021/06/13 03:39:35;;;;;;;9.30;3.67;;;;;;;-139.38;100.00;63230.50;5030848;28;20665;-73
2021/06/13 03:43:01;;;;;;;7.63;4.27;;;;;;;-139.38;100.00;63230.50;5019170;28;20715;-72
2021/06/13 03:46:27;;;;;;;4.93;3.70;;;;;;;-139.38;100.00;63230.50;5021740;28;20208;-72
2021/06/13 03:49:55;;;;;;;6.23;3.77;;;;;;;-139.38;100.00;63230.50;5025929;28;20199;-72
2021/06/13 03:53:21;;;;;;;5.17;3.53;;;;;;;-139.38;100.00;63230.50;5029458;28;20232;-72
2021/06/13 03:56:47;;;;;;;6.47;3.33;;;;;;;-139.38;100.00;63230.50;5031233;28;20206;-72
2021/06/13 04:00:14;;;;;;;7.23;4.20;;;;;;;-139.38;100.00;63230.50;5027640;28;20207;-72
2021/06/13 04:03:41;;;;;;;7.80;3.50;;;;;;;-139.38;100.00;63230.50;5029439;28;20212;-72
2021/06/13 04:07:09;;;;;;;7.57;3.13;;;;;;;-139.38;100.00;63230.50;5027381;28;20230;-72
2021/06/13 04:10:37;;;;;;;6.83;3.80;;;;;;;-139.38;100.00;63230.50;5029543;28;20204;-71
2021/06/13 04:14:03;;;;;;;8.80;3.70;;;;;;;-139.38;100.00;63230.50;5025254;28;20591;-72
2021/06/13 04:17:30;;;;;;;7.33;3.60;;;;;;;-139.38;100.00;63230.50;5033033;28;20218;-71
2021/06/13 04:20:56;;;;;;;8.87;3.50;;;;;;;-139.38;100.00;63230.50;5027562;28;20307;-71
2021/06/13 04:24:24;;;;;;;4.43;3.30;;;;;;;-139.38;100.00;63230.50;5022719;28;20651;-76
2021/06/13 04:27:49;;;;;;;8.07;3.93;;;;;;;-139.38;100.00;63230.50;5017043;28;20285;-73
2021/06/13 04:31:16;;;;;;;5.70;3.40;;;;;;;-139.38;100.00;63230.50;5031971;28;20207;-75
2021/06/13 04:34:43;;;;;;;9.23;3.73;;;;;;;-139.38;100.00;63230.50;5025665;28;20215;-71
2021/06/13 04:38:09;;;;;;;5.43;3.80;;;;;;;-139.38;100.00;63230.50;5030464;28;20286;-72
2021/06/13 04:41:37;;;;;;;5.57;4.07;;;;;;;-139.38;100.00;63230.50;5029535;28;20242;-72
2021/06/13 04:45:06;;;;;;;4.83;3.23;;;;;;;-139.38;100.00;63230.50;5025105;28;20223;-74
2021/06/13 04:48:33;;;;;;;6.47;3.60;;;;;;;-139.38;100.00;63230.50;5029957;28;20282;-75
2021/06/13 04:52:00;;;;;;;6.50;3.50;;;;;;;-139.38;100.00;63230.50;5014921;28;20226;-74
2021/06/13 04:55:34;;;;;;;6.37;3.43;;;;;;;-139.38;100.00;63230.50;5030398;28;20680;-75
2021/06/13 04:59:12;;;;;;;5.93;3.77;;;;;;;-139.38;100.00;63230.50;5024554;28;20652;-76
2021/06/13 05:02:39;;;;;;;4.93;3.30;;;;;;;-139.38;100.00;63230.50;5027460;28;20236;-72
2021/06/13 05:06:06;;;;;;;5.60;3.33;;;;;;;-139.38;100.00;63230.50;5034075;28;20237;-73
2021/06/13 05:09:31;;;;;;;8.03;3.37;;;;;;;-139.38;100.00;63230.50;5032720;28;20203;-77
2021/06/13 05:12:57;;;;;;;6.40;3.33;;;;;;;-139.38;100.00;63230.50;5024021;28;20216;-75
2021/06/13 05:16:25;;;;;;;6.60;3.27;;;;;;;-139.38;100.00;63230.50;5023293;28;20208;-76
2021/06/13 05:19:50;;;;;;;9.70;3.30;;;;;;;-139.38;100.00;63230.50;5031925;28;20213;-76
2021/06/13 05:23:16;;;;;;;8.57;3.13;;;;;;;-139.38;100.00;63230.50;5025597;28;20227;-74
2021/06/13 05:26:42;;;;;;;6.67;2.93;;;;;;;-139.38;100.00;63230.50;5024518;28;20210;-80
2021/06/13 05:30:08;;;;;;;9.73;3.47;;;;;;;-139.38;100.00;63230.50;5030608;28;20201;-76
2021/06/13 05:33:35;;;;;;;7.23;3.00;;;;;;;-139.38;100.00;63230.50;5022127;28;20700;-76
2021/06/13 05:37:01;;;;;;;6.23;2.90;;;;;;;-139.38;100.00;63230.50;5030318;28;20218;-75
2021/06/13 05:40:27;;;;;;;5.93;2.80;;;;;;;-139.38;100.00;63230.50;5028937;28;20205;-75
2021/06/13 05:43:53;;;;;;;8.80;3.10;;;;;;;-139.38;100.00;63230.50;5025105;28;20196;-74
2021/06/13 05:47:19;;;;;;;8.23;3.03;;;;;;;-139.38;100.00;63230.50;5027626;28;20574;-72
2021/06/13 05:50:46;;;;;;;7.13;3.47;;;;;;;-139.38;100.00;63230.50;5030047;28;20684;-75
2021/06/13 05:54:12;;;;;;;6.73;2.83;;;;;;;-139.38;100.00;63230.50;5026465;28;20571;-71
2021/06/13 05:57:37;;;;;;;7.17;3.23;;;;;;;-139.38;100.00;63230.50;5026590;28;20662;-73
2021/06/13 06:01:05;;;;;;;4.57;2.97;;;;;;;-139.38;100.00;63230.50;5025288;28;20206;-72
2021/06/13 06:04:31;;;;;;;6.70;2.77;;;;;;;-139.38;100.00;63230.50;5024623;28;20210;-70
2021/06/13 06:07:58;;;;;;;5.97;3.00;;;;;;;-139.38;100.00;63230.50;5020560;28;20298;-85
2021/06/13 06:11:24;;;;;;;5.63;2.90;;;;;;;-139.38;100.00;63230.50;5019331;28;20210;-74
2021/06/13 06:14:50;;;;;;;7.38;2.75;;;;;;;-139.38;100.00;63230.50;5032042;28;20454;-81
2021/06/13 06:18:16;;;;;;;3.27;2.37;;;;;;;-139.38;100.00;63230.50;5028715;28;20206;-73
2021/06/13 06:21:42;;;;;;;4.17;2.63;;;;;;;-139.38;100.00;63230.50;5030280;28;20605;-76
2021/06/13 06:25:09;;;;;;;7.10;2.50;;;;;;;-139.38;100.00;63230.50;5027642;28;20656;-75
2021/06/13 06:28:36;;;;;;;4.53;2.65;;;;;;;-139.38;100.00;63230.50;5030640;28;20453;-72
2021/06/13 06:32:02;;;;;;;5.93;2.63;;;;;;;-139.38;100.00;63230.50;5030084;28;20232;-74
2021/06/13 06:35:27;;;;;;;7.70;2.40;;;;;;;-139.38;100.00;63230.50;5026617;28;20222;-73
2021/06/13 06:38:53;;;;;;;5.60;2.50;;;;;;;-139.38;100.00;63230.50;5023748;28;20687;-75
2021/06/13 06:42:20;;;;;;;4.90;2.50;;;;;;;-139.38;100.00;63230.50;5027812;28;20244;-75
2021/06/13 06:45:46;;;;;;;5.17;2.20;;;;;;;-139.38;100.00;63230.50;5028047;28;20209;-81
2021/06/13 06:49:12;;;;;;;5.67;2.40;;;;;;;-139.38;100.00;63230.50;5033197;28;20217;-81
2021/06/13 06:52:38;;;;;;;6.60;2.70;;;;;;;-139.38;100.00;63230.50;5028723;28;20226;-76
2021/06/13 06:56:04;;;;;;;5.30;2.67;;;;;;;-139.38;100.00;63230.50;5029976;28;20681;-70
2021/06/13 06:59:31;;;;;;;4.30;2.63;;;;;;;-139.38;100.00;63230.50;5023523;28;20207;-78
2021/06/13 07:02:58;;;;;;;3.83;2.60;;;;;;;-139.38;100.00;63230.50;5033686;28;20226;-85
2021/06/13 07:06:24;;;;;;;4.83;2.43;;;;;;;-139.38;100.00;63230.50;5033381;28;20261;-81
2021/06/13 07:09:50;;;;;;;7.03;2.53;;;;;;;-139.38;100.00;63230.50;5037769;28;20281;-76
2021/06/13 07:13:16;;;;;;;5.00;2.47;;;;;;;-139.38;100.00;63230.50;5023579;28;20229;-75
2021/06/13 07:16:43;;;;;;;6.50;2.57;;;;;;;-139.38;100.00;63230.50;5025662;28;20428;-77
2021/06/13 07:20:10;;;;;;;4.03;2.40;;;;;;;-139.38;100.00;63230.50;5026839;28;20199;-72
2021/06/13 07:23:36;;;;;;;3.50;2.37;;;;;;;-139.38;100.00;63230.50;5023783;28;20226;-72
2021/06/13 07:27:04;;;;;;;4.37;2.13;;;;;;;-139.38;100.00;63230.50;5030315;28;20599;-68
2021/06/13 07:30:30;;;;;;;4.40;2.20;;;;;;;-139.38;100.00;63230.50;5012207;28;20217;-71
2021/06/13 07:33:57;;;;;;;4.03;2.80;;;;;;;-139.38;100.00;63230.50;5015529;28;20261;-74
2021/06/13 07:37:23;;;;;;;8.80;2.70;;;;;;;-139.38;100.00;63230.50;5013181;28;20265;-74
2021/06/13 07:40:49;;;;;;;6.40;2.53;;;;;;;-139.38;100.00;63230.50;5012192;28;20207;-71
2021/06/13 07:44:16;;;;;;;8.37;3.47;;;;;;;-139.38;100.00;63230.50;5009790;28;20234;-71
2021/06/13 07:47:43;;;;;;;6.33;2.70;;;;;;;-139.38;100.00;63230.50;5011397;28;20231;-74
2021/06/13 07:51:12;;;;;;;5.67;3.00;;;;;;;-139.38;100.00;63230.50;5011413;28;20209;-73
2021/06/13 07:54:38;;;;;;;7.93;3.47;;;;;;;-139.38;100.00;63230.50;5009666;28;20215;-76
2021/06/13 07:58:04;;;;;;;7.43;2.90;;;;;;;-139.38;100.00;63230.50;5008369;28;20227;-78
2021/06/13 08:01:29;;;;;;;6.50;2.50;;;;;;;-139.38;100.00;63230.50;5010829;28;20203;-75
2021/06/13 08:05:00;;;;;;;4.90;2.77;;;;;;;-139.38;100.00;63230.50;5013922;28;20227;-72
2021/06/13 08:08:28;;;;;;;5.33;2.43;;;;;;;-139.38;100.00;63230.50;5015745;28;20290;-77
2021/06/13 08:11:54;;;;;;;7.33;2.90;;;;;;;-139.38;100.00;63230.50;5013412;28;20270;-75
2021/06/13 08:15:20;;;;;;;3.83;2.70;;;;;;;-139.38;100.00;63230.50;5011639;28;20231;-75
2021/06/13 08:18:46;;;;;;;4.70;2.87;;;;;;;-139.38;100.00;63230.50;5012535;28;20234;-79
2021/06/13 08:22:12;;;;;;;4.50;3.00;;;;;;;-139.38;100.00;63230.50;5009086;28;20593;-77
2021/06/13 08:25:39;;;;;;;5.97;2.77;;;;;;;-139.38;100.00;63230.50;5010698;28;20667;-78
2021/06/13 08:29:05;;;;;;;3.50;2.60;;;;;;;-139.38;100.00;63230.50;5007395;28;20615;-74
2021/06/13 08:32:31;;;;;;;3.57;2.20;;;;;;;-139.38;100.00;63230.50;5009196;28;20212;-79
2021/06/13 08:35:57;;;;;;;7.60;3.03;;;;;;;-139.38;100.00;63230.50;5005252;28;20584;-73
2021/06/13 08:39:22;;;;;;;6.27;2.53;;;;;;;-139.38;100.00;63230.50;5010582;28;20313;-72
2021/06/13 08:42:49;;;;;;;4.53;2.60;;;;;;;-139.38;100.00;63230.50;5011149;28;20207;-72
2021/06/13 08:46:16;;;;;;;3.90;2.17;;;;;;;-139.38;100.00;63230.50;5006387;28;20208;-75
2021/06/13 08:49:44;;;;;;;4.33;2.47;;;;;;;-139.38;100.00;63230.50;5009788;28;20218;-71
2021/06/13 08:53:11;;;;;;;5.27;2.60;;;;;;;-139.38;100.00;63230.50;5005602;28;20599;-76
2021/06/13 08:56:36;;;;;;;6.17;3.07;;;;;;;-139.38;100.00;63230.50;5006425;28;20216;-75
2021/06/13 09:00:06;;;;;;;4.93;2.40;;;;;;;-139.38;100.00;63230.50;5008947;28;20217;-74
2021/06/13 09:03:31;;;;;;;4.53;2.13;;;;;;;-139.38;100.00;63230.50;5009116;28;20232;-74
2021/06/13 09:06:57;;;;;;;6.47;2.50;;;;;;;-139.38;100.00;63230.50;5010617;28;20210;-75
2021/06/13 09:10:25;;;;;;;5.83;2.90;;;;;;;-139.38;100.00;63230.50;5011895;28;20218;-77
2021/06/13 09:13:52;;;;;;;7.10;2.20;;;;;;;-139.38;100.00;63230.50;5011868;28;20204;-71
2021/06/13 09:17:28;;;;;;;4.47;2.10;;;;;;;-139.38;100.00;63230.50;5013977;28;20203;-72
2021/06/13 09:21:05;;;;;;;3.70;2.43;;;;;;;-139.38;100.00;63230.50;5005973;28;20623;-72
2021/06/13 09:24:31;;;;;;;5.90;2.03;;;;;;;-139.38;100.00;63230.50;5009554;28;20237;-71
2021/06/13 09:28:08;;;;;;;7.53;2.50;;;;;;;-139.38;100.00;63230.50;5012062;28;20231;-73
2021/06/13 09:31:37;;;;;;;5.17;2.50;;;;;;;-139.38;100.00;63230.50;5014657;28;20238;-78
2021/06/13 09:35:19;;;;;;;4.47;2.57;;;;;;;-139.38;100.00;63230.50;5008011;28;20204;-77
2021/06/13 09:39:04;;;;;;;5.27;1.93;;;;;;;-139.38;100.00;63230.50;5004028;28;20224;-77
2021/06/13 09:42:31;;;;;;;4.80;2.23;;;;;;;-139.38;100.00;63230.50;5009319;28;20212;-78
2021/06/13 09:45:59;;;;;;;3.17;2.00;;;;;;;-139.38;100.00;63230.50;5009084;28;20702;-77
2021/06/13 09:49:27;;;;;;;5.53;2.50;;;;;;;-139.38;100.00;63230.50;5006238;28;20229;-77
2021/06/13 09:52:53;;;;;;;4.80;2.40;;;;;;;-139.38;100.00;63230.50;5008902;28;20203;-77
2021/06/13 09:56:20;;;;;;;6.00;2.03;;;;;;;-139.38;100.00;63230.50;5006890;28;20211;-77
2021/06/13 10:00:19;;;;;;;4.90;2.33;;;;;;;-139.38;100.00;63230.50;5010308;28;20211;-77
2021/06/13 10:03:48;;;;;;;5.20;2.40;;;;;;;-139.38;100.00;63230.50;5011432;28;20206;-76
2021/06/13 10:07:26;;;;;;;8.37;2.50;;;;;;;-139.38;100.00;63230.50;4997852;28;20211;-75
2021/06/13 10:10:53;;;;;;;3.27;1.90;;;;;;;-139.38;100.00;63230.50;5007857;28;20303;-76
2021/06/13 10:14:19;;;;;;;7.80;2.33;;;;;;;-139.38;100.00;63230.50;5011155;28;20734;-75
2021/06/13 10:17:47;;;;;;;3.73;2.00;;;;;;;-139.38;100.00;63230.50;5007547;28;20226;-78
2021/06/13 10:21:28;;;;;;;5.70;2.00;;;;;;;-139.38;100.00;63230.50;4995265;28;20581;-78
2021/06/13 10:24:55;;;;;;;3.67;1.80;;;;;;;-139.38;100.00;63230.50;5009336;28;20234;-77
2021/06/13 10:28:21;;;;;;;4.03;1.63;;;;;;;-139.38;100.00;63230.50;4997715;28;20751;-78
2021/06/13 10:31:47;;;;;;;3.13;1.97;;;;;;;-139.38;100.00;63230.50;5007288;28;20205;-77
2021/06/13 10:35:13;;;;;;;4.60;2.40;;;;;;;-139.38;100.00;63230.50;5007545;28;20204;-74
2021/06/13 10:38:41;;;;;;;4.17;1.93;;;;;;;-139.38;100.00;63230.50;5010399;28;20876;-76
2021/06/13 10:42:10;;;;;;;3.80;2.17;;;;;;;-139.38;100.00;63230.50;5008915;28;20295;-76
2021/06/13 10:45:43;;;;;;;2.70;1.90;;;;;;;-139.38;100.00;63230.50;5007298;28;20227;-78
2021/06/13 10:49:27;;;;;;;3.80;1.70;;;;;;;-139.38;100.00;63230.50;5013548;28;20223;-78
2021/06/13 10:53:06;;;;;;;2.53;1.60;;;;;;;-139.38;100.00;63230.50;5005634;28;20200;-76
2021/06/13 10:56:45;;;;;;;4.60;2.10;;;;;;;-139.38;100.00;63230.50;5007354;28;20213;-77
2021/06/13 11:00:32;;;;;;;3.37;1.80;;;;;;;-139.38;100.00;63230.50;5008188;28;20649;-76
2021/06/13 11:03:59;;;;;;;4.23;1.90;;;;;;;-139.38;100.00;63230.50;5013491;28;20559;-76
2021/06/13 11:07:58;;;;;;;7.17;1.70;;;;;;;-139.38;100.00;63230.50;5011613;28;20231;-77
2021/06/13 11:11:33;;;;;;;4.00;1.60;;;;;;;-139.38;100.00;63230.50;5009740;28;20208;-74
2021/06/13 11:15:15;;;;;;;3.80;1.60;;;;;;;-139.38;100.00;63230.50;5014220;28;20201;-75
2021/06/13 11:18:51;;;;;;;2.50;1.93;;;;;;;-139.38;100.00;63230.50;5004019;28;20233;-74
2021/06/13 11:22:34;;;;;;;4.10;1.80;;;;;;;-139.38;100.00;63230.50;5006037;28;20232;-77
2021/06/13 11:26:01;;;;;;;4.90;1.77;;;;;;;-139.38;100.00;63230.50;5004340;28;20229;-75
2021/06/13 11:29:35;;;;;;;3.10;1.80;;;;;;;-139.38;100.00;63230.50;5014059;28;20249;-77
2021/06/13 11:33:01;;;;;;;5.13;2.00;;;;;;;-139.38;100.00;63230.50;5011945;28;20269;-77
2021/06/13 11:36:29;;;;;;;3.73;2.00;;;;;;;-139.38;100.00;63230.50;5009296;28;20747;-77
2021/06/13 11:40:10;;;;;;;4.73;2.83;;;;;;;-139.38;100.00;63230.50;5010102;28;20214;-77
2021/06/13 11:43:42;;;;;;;5.90;2.07;;;;;;;-139.38;100.00;63230.50;5004272;28;20213;-78
2021/06/13 11:47:34;;;;;;;3.90;1.80;;;;;;;-139.38;100.00;63230.50;5002627;28;20348;-78
2021/06/13 11:51:03;;;;;;;3.10;2.10;;;;;;;-139.38;100.00;63230.50;5007895;28;20231;-78
2021/06/13 11:54:48;;;;;;;3.47;1.63;;;;;;;-139.38;100.00;63230.50;5013458;28;20212;-76
2021/06/13 11:58:33;;;;;;;2.47;1.60;;;;;;;-139.38;100.00;63230.50;5007066;28;20239;-76
2021/06/13 12:02:00;;;;;;;4.73;1.90;;;;;;;-139.38;100.00;63230.50;5005183;28;20206;-76
2021/06/13 12:05:27;;;;;;;3.90;1.83;;;;;;;-139.38;100.00;63230.50;5005139;28;20260;-77
2021/06/13 12:08:53;;;;;;;3.20;1.83;;;;;;;-139.38;100.00;63230.50;5005643;28;20225;-76
2021/06/13 12:12:26;;;;;;;4.57;1.53;;;;;;;-139.38;100.00;63230.50;5007469;28;20225;-77
2021/06/13 12:15:57;;;;;;;6.37;1.53;;;;;;;-139.38;100.00;63230.50;5007927;28;20576;-78
2021/06/13 12:19:32;;;;;;;4.70;1.70;;;;;;;-139.38;100.00;63230.50;5010539;28;20617;-75
2021/06/13 12:23:18;;;;;;;4.43;2.10;;;;;;;-139.38;100.00;63230.50;5012992;28;20210;-78
2021/06/13 12:30:33;;;;;;;4.43;1.60;;;;;;;-139.38;100.00;63230.50;5008825;28;20308;-77
2021/06/13 12:33:59;;;;;;;7.30;4.00;;;;;;;-139.38;100.00;63230.50;5008675;28;20571;-77
2021/06/13 12:37:25;;;;;;;2.77;1.70;;;;;;;-139.38;100.00;63230.50;5009678;28;20197;-75
2021/06/13 12:40:56;;;;;;;3.30;2.00;;;;;;;-139.38;100.00;63230.50;5010966;28;20207;-76
2021/06/13 12:44:31;;;;;;;6.25;2.85;;;;;;;-139.38;100.00;63230.50;5008829;28;20211;-76
2021/06/13 12:47:58;;;;;;;11.80;6.43;;;;;;;-139.38;100.00;63230.50;5012934;28;20788;-77
2021/06/13 12:51:31;;;;;;;11.07;6.18;;;;;;;-139.38;100.00;63230.50;5008712;28;20215;-77
2021/06/13 12:54:58;;;;;;;2.17;1.40;;;;;;;-139.38;100.00;63230.50;5009395;28;20664;-78
2021/06/13 12:58:24;;;;;;;3.50;1.83;;;;;;;-139.38;100.00;63230.50;5007788;28;20234;-77
2021/06/13 13:01:50;;;;;;;3.60;1.50;;;;;;;-139.38;100.00;63230.50;5007137;28;20600;-77
2021/06/13 13:05:32;;;;;;;3.03;1.70;;;;;;;-139.38;100.00;63230.50;5011085;28;20209;-78
2021/06/13 13:09:10;;;;;;;3.33;1.60;;;;;;;-139.38;100.00;63230.50;5003953;28;20230;-75
2021/06/13 13:12:36;;;;;;;4.20;1.60;;;;;;;-139.38;100.00;63230.50;5008824;28;20580;-76
2021/06/13 13:16:18;;;;;;;2.53;1.42;;;;;;;-139.38;100.00;63230.50;5011343;28;20542;-76
2021/06/13 13:19:44;;;;;;;3.63;1.40;;;;;;;-139.38;100.00;63230.50;5011475;28;20245;-76
2021/06/13 13:23:20;;;;;;;4.40;1.60;;;;;;;-139.38;100.00;63230.50;5015578;28;20210;-77
2021/06/13 13:30:30;;;;;;;4.35;1.77;;;;;;;-139.38;100.00;63230.50;5008809;28;20244;-73
2021/06/13 13:33:58;;;;;;;2.08;1.35;;;;;;;-139.38;100.00;63230.50;5009417;28;20206;-73
2021/06/13 13:37:33;;;;;;;4.90;1.70;;;;;;;-139.38;100.00;63230.50;5011865;28;20697;-72
2021/06/13 13:41:09;;;;;;;2.45;1.42;;;;;;;-139.38;100.00;63230.50;5010357;28;20199;-74
2021/06/13 13:44:35;;;;;;;2.78;1.52;;;;;;;-139.38;100.00;63230.50;5013152;28;20204;-71
2021/06/13 13:48:07;;;;;;;3.35;1.27;;;;;;;-139.38;100.00;63230.50;5010810;28;20591;-72
2021/06/13 13:51:43;;;;;;;2.45;1.20;;;;;;;-139.38;100.00;63230.50;5011264;28;20260;-72
2021/06/13 13:55:20;;;;;;;7.85;1.45;;;;;;;-139.38;100.00;63230.50;5011369;28;20202;-73
2021/06/13 13:58:47;;;;;;;7.57;1.40;;;;;;;-139.38;100.00;63230.50;5011406;28;20230;-73
2021/06/13 14:02:13;;;;;;;6.75;1.38;;;;;;;-139.38;100.00;63230.50;5011039;28;20671;-74
2021/06/13 14:05:39;;;;;;;2.88;1.25;;;;;;;-139.38;100.00;63230.50;5010059;28;20207;-74
2021/06/13 14:09:07;;;;;;;3.72;1.42;;;;;;;-139.38;100.00;63230.50;5010812;28;20226;-74
2021/06/13 14:12:35;;;;;;;3.33;1.58;;;;;;;-139.38;100.00;63230.50;5015455;28;20294;-73
2021/06/13 14:16:00;;;;;;;5.32;1.38;;;;;;;-139.38;100.00;63230.50;5014573;28;20207;-73
2021/06/13 14:19:26;;;;;;;1.98;1.40;;;;;;;-139.38;100.00;63230.50;5014301;28;20232;-73
2021/06/13 14:22:53;;;;;;;3.92;1.55;;;;;;;-139.38;100.00;63230.50;5015080;28;20203;-73
2021/06/13 14:26:20;;;;;;;2.95;1.45;;;;;;;-139.38;100.00;63230.50;5014688;28;20261;-73
2021/06/13 14:29:47;;;;;;;2.45;1.90;;;;;;;-139.38;100.00;63230.50;5013296;28;20231;-73
2021/06/13 14:33:14;;;;;;;2.20;1.23;;;;;;;-139.38;100.00;63230.50;5015009;28;20222;-73
2021/06/13 14:36:40;;;;;;;2.75;1.58;;;;;;;-139.38;100.00;63230.50;5013381;28;20230;-73
2021/06/13 14:40:07;;;;;;;3.30;1.50;;;;;;;-139.38;100.00;63230.50;5014148;28;20223;-74
2021/06/13 14:43:33;;;;;;;4.13;1.35;;;;;;;-139.38;100.00;63230.50;5013946;28;20208;-74
2021/06/13 14:47:00;;;;;;;2.72;1.35;;;;;;;-139.38;100.00;63230.50;5014481;28;20219;-72
2021/06/13 14:50:26;;;;;;;3.70;1.40;;;;;;;-139.38;100.00;63230.50;5013338;28;20230;-72
2021/06/13 14:53:52;;;;;;;5.45;1.73;;;;;;;-139.38;100.00;63230.50;5014637;28;20207;-72
2021/06/13 14:57:19;;;;;;;1.98;1.15;;;;;;;-139.38;100.00;63230.50;5014518;28;20601;-74
2021/06/13 15:00:50;;;;;;;3.88;1.33;;;;;;;-139.38;100.00;63230.50;5013396;28;20672;-74
2021/06/13 15:04:17;;;;;;;3.38;1.23;;;;;;;-139.38;100.00;63230.50;5010817;28;21823;-74
2021/06/13 15:07:43;;;;;;;1.67;1.30;;;;;;;-139.38;100.00;63230.50;5010533;28;20703;-74
2021/06/13 15:11:09;;;;;;;2.58;1.30;;;;;;;-139.38;100.00;63230.50;5015120;28;20207;-74
2021/06/13 15:14:35;;;;;;;3.60;1.40;;;;;;;-139.38;100.00;63230.50;5013057;28;20206;-74
2021/06/13 15:18:01;;;;;;;3.15;1.50;;;;;;;-139.38;100.00;63230.50;5014051;28;20207;-74
2021/06/13 15:21:29;;;;;;;2.85;1.63;;;;;;;-139.38;100.00;63230.50;5013226;28;20207;-74
2021/06/13 15:24:54;;;;;;;2.67;1.20;;;;;;;-139.38;100.00;63230.50;5013015;28;20544;-74
2021/06/13 15:28:21;;;;;;;1.95;1.30;;;;;;;-139.38;100.00;63230.50;5012507;28;20326;-74
2021/06/13 15:31:47;;;;;;;1.80;1.10;;;;;;;-139.38;100.00;63230.50;5013988;28;20222;-74
2021/06/13 15:35:13;;;;;;;2.53;1.30;;;;;;;-139.38;100.00;63230.50;5013259;28;20587;-74
2021/06/13 15:38:41;;;;;;;4.40;1.45;;;;;;;-139.38;100.00;63230.50;5013501;28;20708;-74
2021/06/13 15:42:08;;;;;;;3.33;1.38;;;;;;;-139.38;100.00;63230.50;5012212;28;20211;-74
2021/06/13 15:45:34;;;;;;;1.25;1.15;;;;;;;-139.38;100.00;63230.50;5014649;28;20210;-74
2021/06/13 15:49:00;;;;;;;1.50;1.23;;;;;;;-139.38;100.00;63230.50;5013159;28;20714;-74
2021/06/13 15:52:26;;;;;;;2.00;1.10;;;;;;;-139.38;100.00;63230.50;5011322;28;20211;-74
2021/06/13 15:55:53;;;;;;;3.85;1.35;;;;;;;-139.38;100.00;63230.50;5012162;28;20215;-74